sensor_id;sensor_type;location;lat;lon;timestamp;pressure;altitude;pressure_sealevel;temperature;humidity
30614;BME280;17381;51.690;5.270;2023-01-27T00:04:12;102466.69;;;5.05;83.94
30614;BME280;17381;51.690;5.270;2023-01-27T00:07:15;102454.53;;;5.05;83.46
30614;BME280;17381;51.690;5.270;2023-01-27T00:10:29;102458.69;;;4.97;82.65
30614;BME280;17381;51.690;5.270;2023-01-27T00:32:02;102469.59;;;4.80;82.57
30614;BME280;17381;51.690;5.270;2023-01-27T01:01:47;102470.94;;;4.66;82.63
30614;BME280;17381;51.690;5.270;2023-01-27T03:16:56;102534.53;;;4.09;82.33
30614;BME280;17381;51.690;5.270;2023-01-27T03:20:32;102540.72;;;4.14;82.76
30614;BME280;17381;51.690;5.270;2023-01-27T03:23:29;102539.09;;;4.18;82.51
30614;BME280;17381;51.690;5.270;2023-01-27T03:26:34;102541.69;;;4.18;82.76
30614;BME280;17381;51.690;5.270;2023-01-27T03:29:54;102544.22;;;4.15;82.68
30614;BME280;17381;51.690;5.270;2023-01-27T03:51:39;102563.09;;;4.08;83.24
30614;BME280;17381;51.690;5.270;2023-01-27T04:02:48;102563.09;;;4.08;83.28
30614;BME280;17381;51.690;5.270;2023-01-27T05:19:59;102598.28;;;3.95;82.94
30614;BME280;17381;51.690;5.270;2023-01-27T05:22:50;102598.38;;;3.98;83.19
30614;BME280;17381;51.690;5.270;2023-01-27T09:17:24;102759.19;;;4.38;76.88
30614;BME280;17381;51.690;5.270;2023-01-27T09:20:24;102759.16;;;4.37;77.33
30614;BME280;17381;51.690;5.270;2023-01-27T09:23:03;102759.19;;;4.38;77.20
30614;BME280;17381;51.690;5.270;2023-01-27T09:25:43;102768.72;;;4.38;76.66
30614;BME280;17381;51.690;5.270;2023-01-27T09:28:20;102773.03;;;4.37;76.39
30614;BME280;17381;51.690;5.270;2023-01-27T09:31:05;102768.69;;;4.36;76.74
30614;BME280;17381;51.690;5.270;2023-01-27T09:33:52;102765.06;;;4.31;76.75
30614;BME280;17381;51.690;5.270;2023-01-27T09:36:29;102773.91;;;4.38;77.01
30614;BME280;17381;51.690;5.270;2023-01-27T09:39:31;102785.91;;;4.33;76.30
30614;BME280;17381;51.690;5.270;2023-01-27T09:45:47;102772.94;;;4.34;76.48
30614;BME280;17381;51.690;5.270;2023-01-27T09:49:14;102775.59;;;4.36;76.64
30614;BME280;17381;51.690;5.270;2023-01-27T10:03:17;102789.69;;;4.43;77.30
30614;BME280;17381;51.690;5.270;2023-01-27T10:13:26;102779.34;;;4.44;77.14
30614;BME280;17381;51.690;5.270;2023-01-27T10:21:27;102780.22;;;4.45;76.98
30614;BME280;17381;51.690;5.270;2023-01-27T10:28:07;102769.81;;;4.46;76.97
30614;BME280;17381;51.690;5.270;2023-01-27T10:31:54;102767.28;;;4.48;77.01
30614;BME280;17381;51.690;5.270;2023-01-27T10:34:53;102768.25;;;4.51;77.19
30614;BME280;17381;51.690;5.270;2023-01-27T10:54:37;102780.53;;;4.55;76.96
30614;BME280;17381;51.690;5.270;2023-01-27T10:57:15;102761.56;;;4.59;77.22
30614;BME280;17381;51.690;5.270;2023-01-27T11:00:14;102773.00;;;4.65;76.99
30614;BME280;17381;51.690;5.270;2023-01-27T13:29:36;102702.44;;;4.86;76.64
30614;BME280;17381;51.690;5.270;2023-01-27T14:16:23;102709.88;;;5.05;75.11
30614;BME280;17381;51.690;5.270;2023-01-27T14:56:49;102714.88;;;4.96;75.73
30614;BME280;17381;51.690;5.270;2023-01-27T15:00:32;102738.47;;;5.02;75.65
30614;BME280;17381;51.690;5.270;2023-01-27T15:03:46;102735.00;;;5.01;75.31
30614;BME280;17381;51.690;5.270;2023-01-27T15:07:02;102735.78;;;4.99;75.46
30614;BME280;17381;51.690;5.270;2023-01-27T15:33:11;102758.81;;;4.85;74.41
30614;BME280;17381;51.690;5.270;2023-01-27T15:36:35;102769.16;;;4.82;75.27
30614;BME280;17381;51.690;5.270;2023-01-27T15:43:32;102775.31;;;4.84;74.94
30614;BME280;17381;51.690;5.270;2023-01-27T15:46:50;102772.72;;;4.84;75.38
30614;BME280;17381;51.690;5.270;2023-01-27T15:56:07;102774.38;;;4.82;75.74
30614;BME280;17381;51.690;5.270;2023-01-27T16:10:04;102779.34;;;4.73;75.79
30614;BME280;17381;51.690;5.270;2023-01-27T16:22:47;102787.63;;;4.59;76.21
30614;BME280;17381;51.690;5.270;2023-01-27T16:33:15;102795.22;;;4.53;76.69
30614;BME280;17381;51.690;5.270;2023-01-27T16:36:17;102795.22;;;4.53;76.37
30614;BME280;17381;51.690;5.270;2023-01-27T16:54:50;102822.84;;;4.48;76.60
30614;BME280;17381;51.690;5.270;2023-01-27T17:05:15;102822.84;;;4.48;76.95
30614;BME280;17381;51.690;5.270;2023-01-27T17:12:01;102828.03;;;4.48;76.94
30614;BME280;17381;51.690;5.270;2023-01-27T17:15:34;102828.91;;;4.49;77.21
30614;BME280;17381;51.690;5.270;2023-01-27T17:26:44;102840.13;;;4.46;77.22
30614;BME280;17381;51.690;5.270;2023-01-27T17:47:45;102858.16;;;4.40;77.32
30614;BME280;17381;51.690;5.270;2023-01-27T17:50:22;102867.00;;;4.45;77.45
30614;BME280;17381;51.690;5.270;2023-01-27T17:52:58;102850.44;;;4.43;76.88
30614;BME280;17381;51.690;5.270;2023-01-27T17:55:33;102834.53;;;4.34;76.39
30614;BME280;17381;51.690;5.270;2023-01-27T18:01:29;102856.59;;;4.45;76.35
30614;BME280;17381;51.690;5.270;2023-01-27T18:04:15;102861.00;;;4.48;76.74
30614;BME280;17381;51.690;5.270;2023-01-27T18:06:45;102855.81;;;4.48;76.61
30614;BME280;17381;51.690;5.270;2023-01-27T18:09:25;102815.84;;;4.19;76.50
30614;BME280;17381;51.690;5.270;2023-01-27T18:12:20;102869.78;;;4.51;76.23
30614;BME280;17381;51.690;5.270;2023-01-27T18:15:41;102867.09;;;4.48;75.97
30614;BME280;17381;51.690;5.270;2023-01-27T18:18:31;102870.31;;;4.40;76.06
30614;BME280;17381;51.690;5.270;2023-01-27T18:21:41;102875.53;;;4.41;76.13
30614;BME280;17381;51.690;5.270;2023-01-27T18:24:45;102873.72;;;4.38;76.00
30614;BME280;17381;51.690;5.270;2023-01-27T18:27:33;102874.63;;;4.39;75.38
30614;BME280;17381;51.690;5.270;2023-01-27T18:30:20;102871.19;;;4.40;75.58
30614;BME280;17381;51.690;5.270;2023-01-27T18:32:59;102776.41;;;3.81;75.17
30614;BME280;17381;51.690;5.270;2023-01-27T18:35:40;102867.53;;;4.35;75.44
30614;BME280;17381;51.690;5.270;2023-01-27T18:38:27;102878.03;;;4.38;75.00
30614;BME280;17381;51.690;5.270;2023-01-27T18:41:16;102877.22;;;4.39;75.77
30614;BME280;17381;51.690;5.270;2023-01-27T18:43:43;102839.88;;;4.11;75.42
30614;BME280;17381;51.690;5.270;2023-01-27T18:46:37;102893.81;;;4.43;75.71
30614;BME280;17381;51.690;5.270;2023-01-27T18:49:15;102889.41;;;4.40;75.32
30614;BME280;17381;51.690;5.270;2023-01-27T18:51:53;102904.16;;;4.41;75.64
30614;BME280;17381;51.690;5.270;2023-01-27T18:54:23;102906.84;;;4.43;75.63
30614;BME280;17381;51.690;5.270;2023-01-27T18:56:53;102911.94;;;4.40;75.13
30614;BME280;17381;51.690;5.270;2023-01-27T18:59:33;102907.69;;;4.42;75.15
30614;BME280;17381;51.690;5.270;2023-01-27T19:02:15;102901.47;;;4.38;75.01
30614;BME280;17381;51.690;5.270;2023-01-27T19:04:52;102858.03;;;4.10;75.29
30614;BME280;17381;51.690;5.270;2023-01-27T19:07:26;102897.75;;;4.30;74.60
30614;BME280;17381;51.690;5.270;2023-01-27T19:10:04;102907.31;;;4.31;74.80
30614;BME280;17381;51.690;5.270;2023-01-27T19:12:33;102918.72;;;4.34;74.43
30614;BME280;17381;51.690;5.270;2023-01-27T19:15:14;102919.53;;;4.33;74.32
30614;BME280;17381;51.690;5.270;2023-01-27T19:17:42;102922.03;;;4.30;74.36
30614;BME280;17381;51.690;5.270;2023-01-27T19:20:32;102924.66;;;4.30;74.14
30614;BME280;17381;51.690;5.270;2023-01-27T19:23:12;102935.91;;;4.29;74.39
30614;BME280;17381;51.690;5.270;2023-01-27T19:25:38;102923.56;;;4.24;74.08
30614;BME280;17381;51.690;5.270;2023-01-27T19:28:11;102919.34;;;4.27;74.22
30614;BME280;17381;51.690;5.270;2023-01-27T19:30:53;102912.22;;;4.22;74.18
30614;BME280;17381;51.690;5.270;2023-01-27T19:33:34;102875.63;;;3.91;74.04
30614;BME280;17381;51.690;5.270;2023-01-27T19:36:19;102928.72;;;4.22;74.42
30614;BME280;17381;51.690;5.270;2023-01-27T19:39:04;102925.31;;;4.25;74.10
30614;BME280;17381;51.690;5.270;2023-01-27T19:41:42;102891.47;;;3.99;74.65
30614;BME280;17381;51.690;5.270;2023-01-27T19:44:18;102932.19;;;4.23;74.83
30614;BME280;17381;51.690;5.270;2023-01-27T19:46:49;102927.59;;;4.15;73.88
30614;BME280;17381;51.690;5.270;2023-01-27T19:49:28;102937.91;;;4.12;74.53
30614;BME280;17381;51.690;5.270;2023-01-27T19:51:57;102936.97;;;4.10;73.80
30614;BME280;17381;51.690;5.270;2023-01-27T19:54:23;102927.22;;;4.05;74.36
30614;BME280;17381;51.690;5.270;2023-01-27T19:56:52;102943.13;;;4.12;74.50
30614;BME280;17381;51.690;5.270;2023-01-27T19:59:24;102946.72;;;4.16;74.65
30614;BME280;17381;51.690;5.270;2023-01-27T20:01:53;102946.59;;;4.13;74.09
30614;BME280;17381;51.690;5.270;2023-01-27T20:04:24;102942.31;;;4.13;74.55
30614;BME280;17381;51.690;5.270;2023-01-27T20:06:54;102941.53;;;4.16;74.27
30614;BME280;17381;51.690;5.270;2023-01-27T20:09:26;102939.84;;;4.18;74.65
30614;BME280;17381;51.690;5.270;2023-01-27T20:11:57;102949.97;;;4.10;74.04
30614;BME280;17381;51.690;5.270;2023-01-27T20:14:27;102943.84;;;4.08;74.20
30614;BME280;17381;51.690;5.270;2023-01-27T20:16:59;102950.03;;;4.12;74.37
30614;BME280;17381;51.690;5.270;2023-01-27T20:19:31;102952.56;;;4.10;74.70
30614;BME280;17381;51.690;5.270;2023-01-27T20:22:02;102946.56;;;4.11;74.54
30614;BME280;17381;51.690;5.270;2023-01-27T20:24:53;102945.63;;;4.09;74.29
30614;BME280;17381;51.690;5.270;2023-01-27T20:27:26;102943.13;;;4.12;74.80
30614;BME280;17381;51.690;5.270;2023-01-27T20:37:11;102950.81;;;4.09;74.49
30614;BME280;17381;51.690;5.270;2023-01-27T20:40:15;102949.09;;;4.10;74.62
30614;BME280;17381;51.690;5.270;2023-01-27T20:43:38;102945.41;;;4.03;74.31
30614;BME280;17381;51.690;5.270;2023-01-27T20:46:27;102947.06;;;4.01;74.31
30614;BME280;17381;51.690;5.270;2023-01-27T20:49:04;102949.66;;;4.01;74.38
30614;BME280;17381;51.690;5.270;2023-01-27T20:51:48;102939.09;;;3.97;74.07
30614;BME280;17381;51.690;5.270;2023-01-27T20:54:27;102936.59;;;4.00;74.36
30614;BME280;17381;51.690;5.270;2023-01-27T20:57:00;102945.41;;;4.03;75.03
30614;BME280;17381;51.690;5.270;2023-01-27T21:03:15;102943.63;;;4.02;74.63
30614;BME280;17381;51.690;5.270;2023-01-27T21:06:47;102935.00;;;4.03;75.01
30614;BME280;17381;51.690;5.270;2023-01-27T21:09:26;102945.34;;;4.02;75.13
30614;BME280;17381;51.690;5.270;2023-01-27T21:12:18;102947.91;;;4.00;74.84
30614;BME280;17381;51.690;5.270;2023-01-27T21:15:19;102946.22;;;4.02;75.24
30614;BME280;17381;51.690;5.270;2023-01-27T21:18:38;102943.59;;;4.01;75.05
30614;BME280;17381;51.690;5.270;2023-01-27T21:21:23;102948.78;;;4.01;75.18
30614;BME280;17381;51.690;5.270;2023-01-27T21:24:12;102951.44;;;4.02;75.62
30614;BME280;17381;51.690;5.270;2023-01-27T21:27:03;102915.19;;;3.83;75.56
30614;BME280;17381;51.690;5.270;2023-01-27T21:29:32;102947.91;;;4.00;76.00
30614;BME280;17381;51.690;5.270;2023-01-27T21:32:20;102945.34;;;4.02;75.72
30614;BME280;17381;51.690;5.270;2023-01-27T21:35:07;102919.06;;;3.94;75.74
30614;BME280;17381;51.690;5.270;2023-01-27T21:37:44;102934.91;;;4.00;75.88
30614;BME280;17381;51.690;5.270;2023-01-27T21:43:56;102839.19;;;3.42;75.84
30614;BME280;17381;51.690;5.270;2023-01-27T21:46:43;102931.13;;;3.92;75.31
30614;BME280;17381;51.690;5.270;2023-01-27T21:49:37;102887.00;;;3.69;75.86
30614;BME280;17381;51.690;5.270;2023-01-27T21:55:55;102923.19;;;3.87;75.69
30614;BME280;17381;51.690;5.270;2023-01-27T21:58:39;102920.41;;;3.83;75.65
30614;BME280;17381;51.690;5.270;2023-01-27T22:01:41;102924.94;;;3.88;75.85
30614;BME280;17381;51.690;5.270;2023-01-27T22:05:04;102918.47;;;3.77;75.72
30614;BME280;17381;51.690;5.270;2023-01-27T22:07:54;102912.22;;;3.72;75.90
30614;BME280;17381;51.690;5.270;2023-01-27T22:10:29;102921.00;;;3.76;75.48
30614;BME280;17381;51.690;5.270;2023-01-27T22:13:04;102916.84;;;3.81;75.55
30614;BME280;17381;51.690;5.270;2023-01-27T22:16:09;102918.56;;;3.80;76.10
30614;BME280;17381;51.690;5.270;2023-01-27T22:18:44;102915.75;;;3.74;75.99
30614;BME280;17381;51.690;5.270;2023-01-27T22:21:10;102914.69;;;3.69;75.68
30614;BME280;17381;51.690;5.270;2023-01-27T22:23:42;102894.78;;;3.69;75.92
30614;BME280;17381;51.690;5.270;2023-01-27T22:26:17;102903.00;;;3.82;75.94
30614;BME280;17381;51.690;5.270;2023-01-27T22:28:52;102890.50;;;3.71;75.63
30614;BME280;17381;51.690;5.270;2023-01-27T22:31:26;102896.63;;;3.72;75.69
30614;BME280;17381;51.690;5.270;2023-01-27T22:34:45;102824.09;;;3.32;76.06
30614;BME280;17381;51.690;5.270;2023-01-27T22:37:45;102896.72;;;3.75;76.08
30614;BME280;17381;51.690;5.270;2023-01-27T22:40:25;102902.13;;;3.81;76.50
30614;BME280;17381;51.690;5.270;2023-01-27T22:42:57;102905.56;;;3.80;75.97
30614;BME280;17381;51.690;5.270;2023-01-27T22:45:51;102912.53;;;3.81;76.16
30614;BME280;17381;51.690;5.270;2023-01-27T22:48:23;102909.94;;;3.81;75.89
30614;BME280;17381;51.690;5.270;2023-01-27T22:51:07;102849.81;;;3.48;76.04
30614;BME280;17381;51.690;5.270;2023-01-27T22:53:33;102904.69;;;3.80;76.44
30614;BME280;17381;51.690;5.270;2023-01-27T22:56:06;102900.19;;;3.76;76.09
30614;BME280;17381;51.690;5.270;2023-01-27T22:58:35;102916.78;;;3.79;76.43
30614;BME280;17381;51.690;5.270;2023-01-27T23:01:05;102907.28;;;3.80;76.38
30614;BME280;17381;51.690;5.270;2023-01-27T23:03:31;102906.34;;;3.78;76.29
30614;BME280;17381;51.690;5.270;2023-01-27T23:06:07;102916.75;;;3.78;75.74
30614;BME280;17381;51.690;5.270;2023-01-27T23:08:37;102910.44;;;3.71;76.11
30614;BME280;17381;51.690;5.270;2023-01-27T23:11:04;102915.75;;;3.74;76.10
30614;BME280;17381;51.690;5.270;2023-01-27T23:13:34;102868.94;;;3.50;76.11
30614;BME280;17381;51.690;5.270;2023-01-27T23:16:08;102900.91;;;3.71;76.14
30614;BME280;17381;51.690;5.270;2023-01-27T23:18:34;102900.88;;;3.70;76.07
30614;BME280;17381;51.690;5.270;2023-01-27T23:21:05;102878.75;;;3.57;75.68
30614;BME280;17381;51.690;5.270;2023-01-27T23:23:40;102913.13;;;3.74;76.24
30614;BME280;17381;51.690;5.270;2023-01-27T23:26:10;102901.56;;;3.66;76.28
30614;BME280;17381;51.690;5.270;2023-01-27T23:28:42;102898.88;;;3.63;76.32
30614;BME280;17381;51.690;5.270;2023-01-27T23:31:22;102916.50;;;3.71;76.00
30614;BME280;17381;51.690;5.270;2023-01-27T23:34:03;102862.59;;;3.42;75.91
30614;BME280;17381;51.690;5.270;2023-01-27T23:37:02;102907.56;;;3.63;75.23
30614;BME280;17381;51.690;5.270;2023-01-27T23:39:40;102909.94;;;3.57;75.83
30614;BME280;17381;51.690;5.270;2023-01-27T23:42:28;102913.63;;;3.64;75.76
30614;BME280;17381;51.690;5.270;2023-01-27T23:45:01;102913.59;;;3.62;76.20
30614;BME280;17381;51.690;5.270;2023-01-27T23:47:35;102904.75;;;3.57;76.04
30614;BME280;17381;51.690;5.270;2023-01-27T23:50:03;102915.19;;;3.59;75.65
30614;BME280;17381;51.690;5.270;2023-01-27T23:52:37;102917.84;;;3.60;76.08
30614;BME280;17381;51.690;5.270;2023-01-27T23:55:07;102909.06;;;3.57;75.61
30614;BME280;17381;51.690;5.270;2023-01-27T23:57:41;102918.56;;;3.56;75.24
